Wetterdaten: Montag, 13.01.2014
Datum Zeit Temperatur Luftfeuchte Luftdruck Regen Wind Richtung Richtung Taupunkt Windchill Windben
13.01.2014 00:00 -4,6 C 91 % 1017,9 hPa 0,0 l/m 0,2 km/h (0 Bft) O 90 -5,8 C -5,4 C 0,0 km/h (0 Bft)
13.01.2014 00:05 -4,9 C 91 % 1017,8 hPa 0,0 l/m 0,2 km/h (0 Bft) O 90 -6,1 C -5,4 C 0,0 km/h (0 Bft)
13.01.2014 00:10 -4,7 C 91 % 1017,8 hPa 0,0 l/m 0,0 km/h (0 Bft) S-SO 157 -5,9 C -5,5 C 0,0 km/h (0 Bft)
13.01.2014 00:15 -3,7 C 91 % 1017,8 hPa 0,0 l/m 1,3 km/h (1 Bft) W-SW 247 -4,9 C -5,0 C 2,1 km/h (1 Bft)
13.01.2014 00:20 -4,4 C 91 % 1017,8 hPa 0,0 l/m 1,9 km/h (1 Bft) O-NO 67 -5,6 C -4,9 C 7,4 km/h (2 Bft)
13.01.2014 00:25 -4,3 C 91 % 1017,7 hPa 0,0 l/m 1,8 km/h (1 Bft) O 90 -5,5 C -4,7 C 7,6 km/h (2 Bft)
13.01.2014 00:30 -3,5 C 92 % 1017,7 hPa 0,0 l/m 3,4 km/h (1 Bft) O 90 -4,6 C -5,3 C 7,9 km/h (2 Bft)
13.01.2014 00:35 -3,0 C 92 % 1017,7 hPa 0,0 l/m 5,1 km/h (1 Bft) O-SO 112 -4,1 C -5,9 C 7,2 km/h (2 Bft)
13.01.2014 00:40 -3,1 C 92 % 1017,7 hPa 0,0 l/m 6,0 km/h (2 Bft) W 270 -4,2 C -5,7 C 11,1 km/h (2 Bft)
13.01.2014 00:45 -4,1 C 91 % 1017,2 hPa 0,0 l/m 4,2 km/h (1 Bft) NO 45 -5,3 C -5,1 C 4,0 km/h (1 Bft)
13.01.2014 00:50 -3,9 C 91 % 1017,2 hPa 0,0 l/m 2,3 km/h (1 Bft) O 90 -5,1 C -4,3 C 3,5 km/h (1 Bft)
13.01.2014 00:55 -3,3 C 91 % 1017,2 hPa 0,0 l/m 3,7 km/h (1 Bft) O 90 -4,6 C -5,1 C 8,2 km/h (2 Bft)
13.01.2014 01:00 -2,6 C 91 % 1017,2 hPa 0,0 l/m 6,1 km/h (2 Bft) O-SO 112 -3,9 C -6,1 C 13,7 km/h (3 Bft)
13.01.2014 01:05 -3,4 C 90 % 1016,8 hPa 0,0 l/m 4,8 km/h (1 Bft) N-NO 22 -4,8 C -5,3 C 0,0 km/h (0 Bft)
13.01.2014 01:10 -3,8 C 89 % 1016,8 hPa 0,0 l/m 3,2 km/h (1 Bft) N-NW 337 -5,3 C -4,7 C 3,4 km/h (1 Bft)
13.01.2014 01:15 -4,0 C 89 % 1016,8 hPa 0,0 l/m 2,6 km/h (1 Bft) N-NW 337 -5,5 C -4,5 C 4,0 km/h (1 Bft)
13.01.2014 01:20 -4,0 C 89 % 1016,8 hPa 0,0 l/m 2,1 km/h (1 Bft) N-NO 22 -5,5 C -4,2 C 2,4 km/h (1 Bft)
13.01.2014 01:25 -4,0 C 89 % 1016,5 hPa 0,0 l/m 2,1 km/h (1 Bft) NW 315 -5,5 C -4,3 C 0,0 km/h (0 Bft)
13.01.2014 01:30 -4,1 C 89 % 1016,5 hPa 0,0 l/m 1,4 km/h (1 Bft) S-SW 202 -5,6 C -4,5 C 0,0 km/h (0 Bft)
13.01.2014 01:35 -4,2 C 89 % 1016,5 hPa 0,0 l/m 1,6 km/h (1 Bft) N 360 -5,7 C -4,6 C 6,4 km/h (2 Bft)
13.01.2014 01:40 -4,5 C 89 % 1016,5 hPa 0,0 l/m 0,8 km/h (0 Bft) N 360 -6,0 C -4,8 C 0,0 km/h (0 Bft)
13.01.2014 01:45 -4,2 C 89 % 1017,0 hPa 0,0 l/m 0,8 km/h (0 Bft) N 360 -5,7 C -5,0 C 0,0 km/h (0 Bft)
13.01.2014 01:50 -4,6 C 89 % 1017,0 hPa 0,0 l/m 0,5 km/h (0 Bft) N-NW 337 -6,1 C -5,0 C 0,0 km/h (0 Bft)
13.01.2014 01:55 -4,7 C 89 % 1017,0 hPa 0,0 l/m 0,3 km/h (0 Bft) N 360 -6,2 C -5,2 C 0,0 km/h (0 Bft)
13.01.2014 02:00 -5,1 C 88 % 1017,0 hPa 0,0 l/m 0,0 km/h (0 Bft) NO 45 -6,8 C -5,5 C 0,0 km/h (0 Bft)
13.01.2014 02:05 -5,2 C 88 % 1017,9 hPa 0,0 l/m 0,0 km/h (0 Bft) N-NO 22 -6,9 C -5,6 C 0,0 km/h (0 Bft)
13.01.2014 02:10 -5,5 C 88 % 1017,9 hPa 0,0 l/m 0,0 km/h (0 Bft) NO 45 -7,2 C -5,7 C 0,0 km/h (0 Bft)
13.01.2014 02:15 -5,2 C 88 % 1017,9 hPa 0,0 l/m 0,2 km/h (0 Bft) NO 45 -6,9 C -5,5 C 0,0 km/h (0 Bft)
13.01.2014 02:20 -5,1 C 88 % 1017,9 hPa 0,0 l/m 0,2 km/h (0 Bft) N-NW 337 -6,8 C -5,6 C 0,0 km/h (0 Bft)
13.01.2014 02:25 -5,3 C 88 % 1018,4 hPa 0,0 l/m 0,0 km/h (0 Bft) N-NW 337 -7,0 C -5,6 C 0,0 km/h (0 Bft)
13.01.2014 02:30 -5,0 C 88 % 1018,4 hPa 0,0 l/m 0,0 km/h (0 Bft) N-NW 337 -6,7 C -5,7 C 0,0 km/h (0 Bft)
13.01.2014 02:35 -4,7 C 89 % 1018,4 hPa 0,0 l/m 0,0 km/h (0 Bft) N-NW 337 -6,2 C -5,7 C 0,0 km/h (0 Bft)
13.01.2014 02:40 -4,6 C 89 % 1018,4 hPa 0,0 l/m 0,0 km/h (0 Bft) N-NO 22 -6,1 C -5,5 C 0,0 km/h (0 Bft)
13.01.2014 02:45 -4,6 C 89 % 1018,6 hPa 0,0 l/m 0,0 km/h (0 Bft) N-NO 22 -6,1 C -5,5 C 0,0 km/h (0 Bft)
13.01.2014 02:50 -5,0 C 89 % 1018,6 hPa 0,0 l/m 0,0 km/h (0 Bft) N-NW 337 -6,5 C -5,4 C 0,0 km/h (0 Bft)
13.01.2014 02:55 -5,2 C 89 % 1018,6 hPa 0,0 l/m 0,0 km/h (0 Bft) N-NW 337 -6,7 C -5,5 C 0,0 km/h (0 Bft)
13.01.2014 03:00 -5,1 C 89 % 1018,6 hPa 0,0 l/m 0,0 km/h (0 Bft) N 360 -6,6 C -5,5 C 0,0 km/h (0 Bft)
13.01.2014 03:05 -4,8 C 89 % 1018,3 hPa 0,0 l/m 0,0 km/h (0 Bft) N-NO 22 -6,3 C -5,3 C 0,0 km/h (0 Bft)
13.01.2014 03:10 -4,7 C 89 % 1018,3 hPa 0,0 l/m 0,0 km/h (0 Bft) N-NW 337 -6,2 C -5,0 C 0,0 km/h (0 Bft)
13.01.2014 03:15 -4,5 C 89 % 1018,3 hPa 0,0 l/m 0,5 km/h (0 Bft) W-SW 247 -6,0 C -4,9 C 0,0 km/h (0 Bft)
13.01.2014 03:20 -4,4 C 89 % 1018,3 hPa 0,0 l/m 0,5 km/h (0 Bft) O 90 -5,9 C -4,7 C 0,0 km/h (0 Bft)
13.01.2014 03:25 -4,5 C 89 % 1017,9 hPa 0,0 l/m 0,2 km/h (0 Bft) SO 135 -6,0 C -4,7 C 0,0 km/h (0 Bft)
13.01.2014 03:30 -4,2 C 89 % 1017,9 hPa 0,0 l/m 0,2 km/h (0 Bft) N-NW 337 -5,7 C -4,6 C 0,0 km/h (0 Bft)
13.01.2014 03:35 -4,2 C 89 % 1017,9 hPa 0,0 l/m 0,3 km/h (0 Bft) N 360 -5,7 C -4,6 C 0,0 km/h (0 Bft)
13.01.2014 03:40 -4,0 C 89 % 1017,9 hPa 0,0 l/m 0,6 km/h (0 Bft) SO 135 -5,5 C -4,5 C 0,0 km/h (0 Bft)
13.01.2014 03:45 -3,9 C 89 % 1017,7 hPa 0,0 l/m 0,5 km/h (0 Bft) O 90 -5,4 C -4,5 C 0,0 km/h (0 Bft)
13.01.2014 03:50 -3,8 C 89 % 1017,7 hPa 0,0 l/m 0,0 km/h (0 Bft) O 90 -5,3 C -4,5 C 0,0 km/h (0 Bft)
13.01.2014 03:55 -3,9 C 89 % 1017,7 hPa 0,0 l/m 0,0 km/h (0 Bft) O 90 -5,4 C -4,5 C 0,0 km/h (0 Bft)
13.01.2014 04:00 -4,1 C 89 % 1017,7 hPa 0,0 l/m 0,0 km/h (0 Bft) SO 135 -5,6 C -4,5 C 0,0 km/h (0 Bft)
13.01.2014 04:05 -4,0 C 89 % 1017,8 hPa 0,0 l/m 0,2 km/h (0 Bft) NO 45 -5,5 C -4,5 C 0,0 km/h (0 Bft)
13.01.2014 04:10 -3,7 C 89 % 1017,8 hPa 0,0 l/m 0,3 km/h (0 Bft) NO 45 -5,2 C -4,5 C 0,0 km/h (0 Bft)
13.01.2014 04:15 -3,5 C 89 % 1017,8 hPa 0,0 l/m 0,3 km/h (0 Bft) O 90 -5,0 C -4,4 C 0,0 km/h (0 Bft)
13.01.2014 04:20 -3,5 C 89 % 1017,8 hPa 0,0 l/m 0,3 km/h (0 Bft) NO 45 -5,0 C -4,3 C 0,0 km/h (0 Bft)
13.01.2014 04:25 -3,2 C 88 % 1017,7 hPa 0,0 l/m 0,2 km/h (0 Bft) NO 45 -4,9 C -4,3 C 0,0 km/h (0 Bft)
13.01.2014 04:30 -3,4 C 88 % 1017,7 hPa 0,0 l/m 0,2 km/h (0 Bft) NO 45 -5,1 C -4,4 C 0,0 km/h (0 Bft)
13.01.2014 04:35 -3,6 C 88 % 1017,7 hPa 0,0 l/m 0,2 km/h (0 Bft) NO 45 -5,3 C -4,4 C 0,0 km/h (0 Bft)
13.01.2014 04:40 -3,9 C 87 % 1017,7 hPa 0,0 l/m 0,0 km/h (0 Bft) NO 45 -5,7 C -4,5 C 0,0 km/h (0 Bft)
13.01.2014 04:45 -3,9 C 87 % 1017,4 hPa 0,0 l/m 0,2 km/h (0 Bft) NO 45 -5,7 C -4,5 C 2,9 km/h (1 Bft)
13.01.2014 04:48 -3,5 C 87 % 1017,4 hPa 0,0 l/m 0,5 km/h (0 Bft) NO 45 -5,3 C -4,5 C 0,0 km/h (0 Bft)
13.01.2014 04:50 -3,5 C 87 % 1017,4 hPa 0,0 l/m 0,5 km/h (0 Bft) NO 45 -5,3 C -4,5 C 0,0 km/h (0 Bft)
13.01.2014 04:55 -3,8 C 86 % 1017,4 hPa 0,0 l/m 0,5 km/h (0 Bft) NO 45 -5,8 C -4,5 C 0,0 km/h (0 Bft)
13.01.2014 05:00 -3,8 C 86 % 1017,4 hPa 0,0 l/m 0,0 km/h (0 Bft) NO 45 -5,8 C -4,5 C 0,0 km/h (0 Bft)
13.01.2014 05:05 -4,0 C 86 % 1017,5 hPa 0,0 l/m 0,0 km/h (0 Bft) NO 45 -6,0 C -4,5 C 0,0 km/h (0 Bft)
13.01.2014 05:10 -3,8 C 86 % 1017,5 hPa 0,0 l/m 0,0 km/h (0 Bft) NO 45 -5,8 C -4,6 C 0,0 km/h (0 Bft)
13.01.2014 05:15 -3,6 C 86 % 1017,5 hPa 0,0 l/m 0,0 km/h (0 Bft) O 90 -5,6 C -4,6 C 0,0 km/h (0 Bft)
13.01.2014 05:20 -3,4 C 85 % 1017,5 hPa 0,0 l/m 0,3 km/h (0 Bft) O-NO 67 -5,5 C -4,5 C 0,0 km/h (0 Bft)
13.01.2014 05:25 -3,7 C 85 % 1017,4 hPa 0,0 l/m 0,3 km/h (0 Bft) O-NO 67 -5,8 C -4,5 C 0,0 km/h (0 Bft)
13.01.2014 05:30 -3,9 C 85 % 1017,4 hPa 0,0 l/m 0,2 km/h (0 Bft) O-SO 112 -6,0 C -4,6 C 0,0 km/h (0 Bft)
13.01.2014 05:35 -3,8 C 84 % 1017,4 hPa 0,0 l/m 0,3 km/h (0 Bft) O 90 -6,1 C -4,6 C 0,0 km/h (0 Bft)
13.01.2014 05:40 -3,9 C 84 % 1017,4 hPa 0,0 l/m 0,3 km/h (0 Bft) O 90 -6,2 C -4,7 C 0,0 km/h (0 Bft)
13.01.2014 05:45 -3,7 C 84 % 1017,4 hPa 0,0 l/m 0,3 km/h (0 Bft) NO 45 -6,0 C -4,6 C 2,6 km/h (1 Bft)
13.01.2014 05:50 -3,6 C 84 % 1017,4 hPa 0,0 l/m 0,8 km/h (0 Bft) NO 45 -5,9 C -4,5 C 0,0 km/h (0 Bft)
13.01.2014 05:55 -3,5 C 84 % 1017,4 hPa 0,0 l/m 0,5 km/h (0 Bft) NO 45 -5,8 C -4,4 C 0,0 km/h (0 Bft)
13.01.2014 06:00 -3,7 C 84 % 1017,4 hPa 0,0 l/m 0,0 km/h (0 Bft) O-NO 67 -6,0 C -4,4 C 0,0 km/h (0 Bft)
13.01.2014 06:05 -3,8 C 83 % 1017,8 hPa 0,0 l/m 0,2 km/h (0 Bft) S-SW 202 -6,3 C -4,5 C 0,0 km/h (0 Bft)
13.01.2014 06:10 -4,0 C 83 % 1017,8 hPa 0,0 l/m 0,6 km/h (0 Bft) O 90 -6,4 C -4,5 C 4,3 km/h (1 Bft)
13.01.2014 06:15 -3,6 C 83 % 1017,8 hPa 0,0 l/m 0,8 km/h (0 Bft) O 90 -6,1 C -4,5 C 3,1 km/h (1 Bft)
13.01.2014 06:20 -3,6 C 82 % 1017,8 hPa 0,0 l/m 1,9 km/h (1 Bft) W-SW 247 -6,2 C -4,5 C 4,8 km/h (1 Bft)
13.01.2014 06:25 -3,5 C 82 % 1017,6 hPa 0,0 l/m 2,4 km/h (1 Bft) O-SO 112 -6,1 C -4,7 C 5,8 km/h (2 Bft)
13.01.2014 06:30 -3,3 C 80 % 1017,6 hPa 0,0 l/m 2,3 km/h (1 Bft) W-SW 247 -6,2 C -4,4 C 2,4 km/h (1 Bft)
13.01.2014 06:35 -3,5 C 80 % 1017,6 hPa 0,0 l/m 2,1 km/h (1 Bft) S-SO 157 -6,4 C -4,2 C 3,1 km/h (1 Bft)
13.01.2014 06:40 -3,0 C 80 % 1017,6 hPa 0,0 l/m 1,8 km/h (1 Bft) SW 225 -6,0 C -3,9 C 2,1 km/h (1 Bft)
13.01.2014 06:45 -1,3 C 79 % 1017,0 hPa 0,0 l/m 3,4 km/h (1 Bft) O 90 -4,5 C -4,6 C 7,2 km/h (2 Bft)
13.01.2014 06:50 -1,7 C 75 % 1017,0 hPa 0,0 l/m 4,3 km/h (1 Bft) S-SW 202 -5,5 C -4,5 C 2,3 km/h (1 Bft)
13.01.2014 06:55 -1,9 C 74 % 1017,0 hPa 0,0 l/m 3,1 km/h (1 Bft) N-NO 22 -5,9 C -3,8 C 2,6 km/h (1 Bft)
13.01.2014 07:00 -2,2 C 74 % 1017,0 hPa 0,0 l/m 1,6 km/h (1 Bft) O-NO 67 -6,2 C -3,2 C 9,3 km/h (2 Bft)
13.01.2014 07:05 -1,4 C 74 % 1016,8 hPa 0,0 l/m 1,9 km/h (1 Bft) N-NO 22 -5,4 C -2,8 C 0,0 km/h (0 Bft)
13.01.2014 07:10 -2,0 C 74 % 1016,8 hPa 0,0 l/m 1,8 km/h (1 Bft) O-SO 112 -6,0 C -3,0 C 0,0 km/h (0 Bft)
13.01.2014 07:15 0,5 C 68 % 1016,8 hPa 0,0 l/m 2,6 km/h (1 Bft) O-SO 112 -4,7 C -3,2 C 7,4 km/h (2 Bft)
13.01.2014 07:20 1,6 C 58 % 1016,8 hPa 0,0 l/m 6,3 km/h (2 Bft) O-SO 112 -5,8 C -3,6 C 6,9 km/h (2 Bft)
13.01.2014 07:25 1,3 C 59 % 1016,8 hPa 0,0 l/m 7,1 km/h (2 Bft) O 90 -5,8 C -4,0 C 9,0 km/h (2 Bft)
13.01.2014 07:30 0,7 C 61 % 1016,8 hPa 0,0 l/m 5,1 km/h (1 Bft) O-SO 112 -5,9 C -1,9 C 5,8 km/h (2 Bft)
13.01.2014 07:35 -0,8 C 63 % 1016,8 hPa 0,0 l/m 2,9 km/h (1 Bft) W-NW 292 -6,9 C -0,7 C 0,0 km/h (0 Bft)
13.01.2014 07:40 -1,8 C 66 % 1016,8 hPa 0,0 l/m 1,9 km/h (1 Bft) NO 45 -7,3 C -1,1 C 0,0 km/h (0 Bft)
13.01.2014 07:45 -2,0 C 68 % 1017,1 hPa 0,0 l/m 1,1 km/h (1 Bft) N-NO 22 -7,1 C -1,9 C 0,0 km/h (0 Bft)
13.01.2014 07:50 -2,3 C 69 % 1017,1 hPa 0,0 l/m 0,5 km/h (0 Bft) NO 45 -7,2 C -2,5 C 0,0 km/h (0 Bft)
13.01.2014 07:55 -1,7 C 72 % 1017,1 hPa 0,0 l/m 0,2 km/h (0 Bft) O-NO 67 -6,1 C -2,9 C 0,0 km/h (0 Bft)
13.01.2014 08:00 -1,9 C 72 % 1017,1 hPa 0,0 l/m 1,0 km/h (0 Bft) O-NO 67 -6,3 C -2,8 C 0,0 km/h (0 Bft)
13.01.2014 08:05 -0,3 C 70 % 1017,2 hPa 0,0 l/m 2,6 km/h (1 Bft) NO 45 -5,1 C -3,2 C 7,6 km/h (2 Bft)
13.01.2014 08:10 -1,7 C 69 % 1017,2 hPa 0,0 l/m 2,3 km/h (1 Bft) W 270 -6,6 C -2,6 C 0,0 km/h (0 Bft)
13.01.2014 08:15 -2,0 C 70 % 1017,2 hPa 0,0 l/m 1,4 km/h (1 Bft) N-NO 22 -6,7 C -2,8 C 0,0 km/h (0 Bft)
13.01.2014 08:20 -2,3 C 71 % 1017,2 hPa 0,0 l/m 0,3 km/h (0 Bft) N-NO 22 -6,8 C -3,0 C 0,0 km/h (0 Bft)
13.01.2014 08:25 -2,2 C 72 % 1017,3 hPa 0,0 l/m 0,2 km/h (0 Bft) N-NO 22 -6,5 C -3,0 C 0,0 km/h (0 Bft)
13.01.2014 08:30 -2,2 C 72 % 1017,3 hPa 0,0 l/m 0,0 km/h (0 Bft) N-NO 22 -6,5 C -2,9 C 0,0 km/h (0 Bft)
13.01.2014 08:35 -2,4 C 73 % 1017,3 hPa 0,0 l/m 0,0 km/h (0 Bft) N-NW 337 -6,6 C -2,9 C 0,0 km/h (0 Bft)
13.01.2014 08:40 -2,6 C 73 % 1017,3 hPa 0,0 l/m 0,0 km/h (0 Bft) N 360 -6,8 C -3,0 C 0,0 km/h (0 Bft)
13.01.2014 08:45 -2,6 C 74 % 1017,4 hPa 0,0 l/m 0,0 km/h (0 Bft) N 360 -6,6 C -3,0 C 0,0 km/h (0 Bft)
13.01.2014 08:50 -2,3 C 75 % 1017,4 hPa 0,0 l/m 0,3 km/h (0 Bft) W 270 -6,1 C -2,8 C 0,0 km/h (0 Bft)
13.01.2014 08:55 -2,5 C 75 % 1017,4 hPa 0,0 l/m 0,3 km/h (0 Bft) NO 45 -6,3 C -2,6 C 2,9 km/h (1 Bft)
13.01.2014 09:00 -2,5 C 75 % 1017,4 hPa 0,0 l/m 0,2 km/h (0 Bft) NO 45 -6,3 C -2,7 C 0,0 km/h (0 Bft)
13.01.2014 09:05 -2,5 C 75 % 1017,4 hPa 0,0 l/m 0,2 km/h (0 Bft) NO 45 -6,3 C -2,7 C 0,0 km/h (0 Bft)
13.01.2014 09:10 -2,0 C 76 % 1017,4 hPa 0,0 l/m 0,2 km/h (0 Bft) O-NO 67 -5,6 C -2,3 C 0,0 km/h (0 Bft)
13.01.2014 09:15 -2,0 C 76 % 1017,4 hPa 0,0 l/m 0,2 km/h (0 Bft) NO 45 -5,6 C -2,0 C 0,0 km/h (0 Bft)
13.01.2014 09:20 -2,0 C 76 % 1017,4 hPa 0,0 l/m 0,0 km/h (0 Bft) O 90 -5,6 C -1,9 C 0,0 km/h (0 Bft)
13.01.2014 09:25 -2,0 C 76 % 1017,2 hPa 0,0 l/m 0,0 km/h (0 Bft) O-SO 112 -5,6 C -1,8 C 0,0 km/h (0 Bft)
13.01.2014 09:30 -1,6 C 77 % 1017,2 hPa 0,0 l/m 0,2 km/h (0 Bft) N 360 -5,1 C -1,7 C 3,4 km/h (1 Bft)
13.01.2014 09:35 -1,2 C 78 % 1017,2 hPa 0,0 l/m 0,6 km/h (0 Bft) N-NO 22 -4,5 C -1,6 C 0,0 km/h (0 Bft)
13.01.2014 09:40 -1,1 C 78 % 1017,2 hPa 0,0 l/m 0,8 km/h (0 Bft) N 360 -4,4 C -1,3 C 0,0 km/h (0 Bft)
13.01.2014 09:45 0,1 C 78 % 1016,9 hPa 0,0 l/m 1,1 km/h (1 Bft) N 360 -3,3 C -1,0 C 0,0 km/h (0 Bft)
13.01.2014 09:50 -0,4 C 77 % 1016,9 hPa 0,0 l/m 1,0 km/h (0 Bft) N-NO 22 -3,9 C -0,7 C 1,6 km/h (1 Bft)
13.01.2014 09:55 -0,1 C 78 % 1016,9 hPa 0,0 l/m 0,5 km/h (0 Bft) N 360 -3,5 C -0,4 C 0,0 km/h (0 Bft)
13.01.2014 10:00 0,5 C 78 % 1016,9 hPa 0,0 l/m 0,2 km/h (0 Bft) NW 315 -2,9 C -0,1 C 1,9 km/h (1 Bft)
13.01.2014 10:05 0,2 C 77 % 1016,8 hPa 0,0 l/m 0,2 km/h (0 Bft) N 360 -3,3 C 0,2 C 0,0 km/h (0 Bft)
13.01.2014 10:10 0,6 C 77 % 1016,8 hPa 0,0 l/m 0,3 km/h (0 Bft) NO 45 -3,0 C 0,3 C 0,0 km/h (0 Bft)
13.01.2014 10:15 0,7 C 77 % 1016,8 hPa 0,0 l/m 0,3 km/h (0 Bft) NO 45 -2,9 C 0,4 C 0,0 km/h (0 Bft)
13.01.2014 10:20 0,8 C 77 % 1016,8 hPa 0,0 l/m 0,0 km/h (0 Bft) NO 45 -2,8 C 0,7 C 0,0 km/h (0 Bft)
13.01.2014 10:25 0,7 C 77 % 1016,8 hPa 0,0 l/m 0,3 km/h (0 Bft) S 180 -2,9 C 1,0 C 0,0 km/h (0 Bft)
13.01.2014 10:30 0,7 C 77 % 1016,8 hPa 0,0 l/m 0,5 km/h (0 Bft) O 90 -2,9 C 1,3 C 3,7 km/h (1 Bft)
13.01.2014 10:35 1,1 C 77 % 1016,8 hPa 0,0 l/m 0,5 km/h (0 Bft) O 90 -2,5 C 1,5 C 0,0 km/h (0 Bft)
13.01.2014 10:40 1,2 C 77 % 1016,8 hPa 0,0 l/m 0,6 km/h (0 Bft) O 90 -2,4 C 1,8 C 0,0 km/h (0 Bft)
13.01.2014 10:45 1,0 C 77 % 1016,6 hPa 0,0 l/m 0,2 km/h (0 Bft) O 90 -2,6 C 1,9 C 0,0 km/h (0 Bft)
13.01.2014 10:48 1,7 C 77 % 1016,6 hPa 0,0 l/m 0,0 km/h (0 Bft) O-NO 67 -1,9 C 2,1 C 0,0 km/h (0 Bft)
13.01.2014 10:50 1,7 C 77 % 1016,6 hPa 0,0 l/m 0,0 km/h (0 Bft) O-NO 67 -1,9 C 2,1 C 0,0 km/h (0 Bft)
13.01.2014 10:55 1,8 C 77 % 1016,6 hPa 0,0 l/m 0,3 km/h (0 Bft) SO 135 -1,8 C 2,3 C 2,6 km/h (1 Bft)
13.01.2014 11:00 2,4 C 75 % 1016,6 hPa 0,0 l/m 0,8 km/h (0 Bft) O-NO 67 -1,6 C 2,7 C 0,0 km/h (0 Bft)
13.01.2014 11:05 2,7 C 75 % 1016,4 hPa 0,0 l/m 1,0 km/h (0 Bft) SO 135 -1,3 C 3,0 C 1,6 km/h (1 Bft)
13.01.2014 11:10 2,4 C 75 % 1016,4 hPa 0,0 l/m 0,2 km/h (0 Bft) SO 135 -1,6 C 3,4 C 0,0 km/h (0 Bft)
13.01.2014 11:15 2,8 C 75 % 1016,4 hPa 0,0 l/m 0,0 km/h (0 Bft) NO 45 -1,2 C 3,6 C 0,0 km/h (0 Bft)
13.01.2014 11:20 3,0 C 74 % 1016,4 hPa 0,0 l/m 1,1 km/h (1 Bft) NO 45 -1,2 C 5,0 C 2,4 km/h (1 Bft)
13.01.2014 11:25 3,5 C 73 % 1016,0 hPa 0,0 l/m 2,1 km/h (1 Bft) O-NO 67 -0,9 C 5,2 C 2,7 km/h (1 Bft)
13.01.2014 11:30 3,7 C 71 % 1016,0 hPa 0,0 l/m 1,4 km/h (1 Bft) O-NO 67 -1,1 C 5,0 C 0,0 km/h (0 Bft)
13.01.2014 11:35 3,4 C 71 % 1016,0 hPa 0,0 l/m 0,6 km/h (0 Bft) O 90 -1,3 C 5,1 C 0,0 km/h (0 Bft)
13.01.2014 11:40 3,5 C 71 % 1016,0 hPa 0,0 l/m 0,0 km/h (0 Bft) O 90 -1,3 C 5,3 C 0,0 km/h (0 Bft)
13.01.2014 11:45 3,8 C 71 % 1015,9 hPa 0,0 l/m 0,0 km/h (0 Bft) O 90 -1,0 C 5,1 C 0,0 km/h (0 Bft)
13.01.2014 11:50 4,2 C 71 % 1015,9 hPa 0,0 l/m 0,6 km/h (0 Bft) O 90 -0,6 C 5,4 C 3,9 km/h (1 Bft)
13.01.2014 11:55 4,7 C 69 % 1015,9 hPa 0,0 l/m 2,3 km/h (1 Bft) O-NO 67 -0,5 C 6,0 C 4,2 km/h (1 Bft)
13.01.2014 12:00 5,0 C 67 % 1015,9 hPa 0,0 l/m 3,1 km/h (1 Bft) O-NO 67 -0,6 C 6,2 C 2,9 km/h (1 Bft)
13.01.2014 12:05 4,7 C 67 % 1015,9 hPa 0,0 l/m 1,8 km/h (1 Bft) O-NO 67 -0,9 C 6,3 C 0,0 km/h (0 Bft)
13.01.2014 12:10 4,8 C 67 % 1015,9 hPa 0,0 l/m 1,3 km/h (1 Bft) O-NO 67 -0,8 C 6,3 C 4,2 km/h (1 Bft)
13.01.2014 12:15 5,3 C 67 % 1015,9 hPa 0,0 l/m 1,8 km/h (1 Bft) O-SO 112 -0,3 C 6,3 C 0,0 km/h (0 Bft)
13.01.2014 12:20 5,5 C 63 % 1015,9 hPa 0,0 l/m 1,8 km/h (1 Bft) N-NW 337 -1,0 C 6,5 C 2,3 km/h (1 Bft)
13.01.2014 12:25 5,7 C 63 % 1015,6 hPa 0,0 l/m 1,3 km/h (1 Bft) N-NO 22 -0,8 C 6,6 C 0,0 km/h (0 Bft)
13.01.2014 12:30 5,2 C 65 % 1015,6 hPa 0,0 l/m 1,4 km/h (1 Bft) S-SO 157 -0,8 C 6,9 C 2,7 km/h (1 Bft)
13.01.2014 12:35 5,3 C 65 % 1015,6 hPa 0,0 l/m 1,1 km/h (1 Bft) S-SO 157 -0,7 C 6,9 C 0,0 km/h (0 Bft)
13.01.2014 12:40 5,3 C 65 % 1015,6 hPa 0,0 l/m 1,6 km/h (1 Bft) S 180 -0,7 C 6,8 C 3,5 km/h (1 Bft)
13.01.2014 12:45 5,2 C 65 % 1015,4 hPa 0,0 l/m 1,6 km/h (1 Bft) S 180 -0,8 C 6,8 C 3,4 km/h (1 Bft)
13.01.2014 12:50 5,4 C 66 % 1015,4 hPa 0,0 l/m 3,1 km/h (1 Bft) S 180 -0,4 C 7,0 C 3,7 km/h (1 Bft)
13.01.2014 12:55 5,5 C 66 % 1015,4 hPa 0,0 l/m 3,9 km/h (1 Bft) S-SO 157 -0,3 C 6,9 C 3,5 km/h (1 Bft)
13.01.2014 13:00 5,4 C 66 % 1015,4 hPa 0,0 l/m 3,9 km/h (1 Bft) W 270 -0,4 C 7,1 C 4,2 km/h (1 Bft)
13.01.2014 13:05 5,4 C 66 % 1015,2 hPa 0,0 l/m 2,6 km/h (1 Bft) S 180 -0,4 C 7,2 C 0,0 km/h (0 Bft)
13.01.2014 13:10 5,2 C 66 % 1015,2 hPa 0,0 l/m 1,9 km/h (1 Bft) S-SO 157 -0,6 C 7,0 C 4,3 km/h (1 Bft)
13.01.2014 13:15 5,6 C 66 % 1015,2 hPa 0,0 l/m 1,9 km/h (1 Bft) S-SO 157 -0,2 C 7,0 C 0,0 km/h (0 Bft)
13.01.2014 13:20 6,0 C 64 % 1015,2 hPa 0,0 l/m 1,0 km/h (0 Bft) S-SO 157 -0,3 C 7,1 C 0,0 km/h (0 Bft)
13.01.2014 13:25 6,2 C 63 % 1015,1 hPa 0,0 l/m 0,0 km/h (0 Bft) S-SO 157 -0,3 C 7,4 C 0,0 km/h (0 Bft)
13.01.2014 13:30 6,2 C 63 % 1015,1 hPa 0,0 l/m 0,0 km/h (0 Bft) S-SO 157 -0,3 C 7,8 C 0,0 km/h (0 Bft)
13.01.2014 13:35 6,4 C 63 % 1015,1 hPa 0,0 l/m 0,0 km/h (0 Bft) S-SO 157 -0,1 C 8,0 C 0,0 km/h (0 Bft)
13.01.2014 13:40 6,7 C 62 % 1015,1 hPa 0,0 l/m 0,0 km/h (0 Bft) S-SO 157 -0,1 C 8,4 C 2,1 km/h (1 Bft)
13.01.2014 13:45 6,9 C 61 % 1014,9 hPa 0,0 l/m 0,3 km/h (0 Bft) S-SO 157 -0,1 C 8,5 C 2,1 km/h (1 Bft)
13.01.2014 13:50 6,9 C 62 % 1014,9 hPa 0,0 l/m 0,6 km/h (0 Bft) S-SO 157 0,1 C 8,7 C 0,0 km/h (0 Bft)
13.01.2014 13:55 6,9 C 62 % 1014,9 hPa 0,0 l/m 0,3 km/h (0 Bft) S-SO 157 0,1 C 8,8 C 0,0 km/h (0 Bft)
13.01.2014 14:00 6,9 C 62 % 1014,9 hPa 0,0 l/m 0,0 km/h (0 Bft) S-SO 157 0,1 C 9,0 C 0,0 km/h (0 Bft)
13.01.2014 14:05 6,9 C 63 % 1014,9 hPa 0,0 l/m 0,0 km/h (0 Bft) S-SO 157 0,4 C 9,0 C 0,0 km/h (0 Bft)
13.01.2014 14:10 6,9 C 63 % 1014,9 hPa 0,0 l/m 0,2 km/h (0 Bft) W-SW 247 0,4 C 9,0 C 3,2 km/h (1 Bft)
13.01.2014 14:15 6,7 C 60 % 1014,9 hPa 0,0 l/m 1,8 km/h (1 Bft) N-NW 337 -0,5 C 8,8 C 4,7 km/h (1 Bft)
13.01.2014 14:20 6,6 C 59 % 1014,9 hPa 0,0 l/m 4,0 km/h (1 Bft) N 360 -0,8 C 8,3 C 3,5 km/h (1 Bft)
13.01.2014 14:25 6,2 C 60 % 1014,8 hPa 0,0 l/m 4,2 km/h (1 Bft) N 360 -1,0 C 8,0 C 4,5 km/h (1 Bft)
13.01.2014 14:30 5,8 C 64 % 1014,8 hPa 0,0 l/m 2,7 km/h (1 Bft) N-NO 22 -0,5 C 7,8 C 0,0 km/h (0 Bft)
13.01.2014 14:35 5,7 C 64 % 1014,8 hPa 0,0 l/m 1,6 km/h (1 Bft) N-NO 22 -0,6 C 7,6 C 2,3 km/h (1 Bft)
13.01.2014 14:40 5,8 C 63 % 1014,8 hPa 0,0 l/m 0,8 km/h (0 Bft) N-NO 22 -0,7 C 7,3 C 0,0 km/h (0 Bft)
13.01.2014 14:45 5,9 C 63 % 1014,7 hPa 0,0 l/m 0,8 km/h (0 Bft) N-NO 22 -0,6 C 7,3 C 0,0 km/h (0 Bft)
13.01.2014 14:50 5,9 C 63 % 1014,7 hPa 0,0 l/m 0,2 km/h (0 Bft) N-NO 22 -0,6 C 7,3 C 0,0 km/h (0 Bft)
13.01.2014 14:55 5,9 C 64 % 1014,7 hPa 0,0 l/m 0,0 km/h (0 Bft) N-NO 22 -0,4 C 7,3 C 0,0 km/h (0 Bft)
13.01.2014 15:00 5,8 C 64 % 1014,7 hPa 0,0 l/m 0,0 km/h (0 Bft) N-NO 22 -0,5 C 7,2 C 0,0 km/h (0 Bft)
13.01.2014 15:05 5,7 C 64 % 1014,7 hPa 0,0 l/m 0,0 km/h (0 Bft) N-NO 22 -0,6 C 7,2 C 0,0 km/h (0 Bft)
13.01.2014 15:10 5,8 C 64 % 1014,7 hPa 0,0 l/m 0,0 km/h (0 Bft) N-NO 22 -0,5 C 7,1 C 0,0 km/h (0 Bft)
13.01.2014 15:15 5,8 C 65 % 1014,7 hPa 0,0 l/m 0,0 km/h (0 Bft) N-NO 22 -0,3 C 7,1 C 0,0 km/h (0 Bft)
13.01.2014 15:20 5,9 C 64 % 1014,7 hPa 0,0 l/m 0,0 km/h (0 Bft) N-NO 22 -0,4 C 7,1 C 1,6 km/h (1 Bft)
13.01.2014 15:25 6,0 C 62 % 1014,5 hPa 0,0 l/m 0,0 km/h (0 Bft) N-NO 22 -0,7 C 7,1 C 0,0 km/h (0 Bft)
13.01.2014 15:30 5,7 C 65 % 1014,5 hPa 0,0 l/m 0,0 km/h (0 Bft) N-NO 22 -0,4 C 7,1 C 0,0 km/h (0 Bft)
13.01.2014 15:35 5,6 C 65 % 1014,5 hPa 0,0 l/m 0,0 km/h (0 Bft) N-NO 22 -0,4 C 7,0 C 0,0 km/h (0 Bft)
13.01.2014 15:40 5,6 C 65 % 1014,5 hPa 0,0 l/m 0,6 km/h (0 Bft) N-NO 22 -0,4 C 6,7 C 2,3 km/h (1 Bft)
13.01.2014 15:45 5,6 C 65 % 1014,4 hPa 0,0 l/m 1,0 km/h (0 Bft) N-NO 22 -0,4 C 6,5 C 1,6 km/h (1 Bft)
13.01.2014 15:50 5,2 C 66 % 1014,4 hPa 0,0 l/m 0,8 km/h (0 Bft) N-NO 22 -0,6 C 6,3 C 2,3 km/h (1 Bft)
13.01.2014 15:55 5,4 C 65 % 1014,4 hPa 0,0 l/m 1,4 km/h (1 Bft) N-NO 22 -0,6 C 6,0 C 3,1 km/h (1 Bft)
13.01.2014 16:00 5,3 C 65 % 1014,4 hPa 0,0 l/m 1,9 km/h (1 Bft) N-NO 22 -0,7 C 5,8 C 1,9 km/h (1 Bft)
13.01.2014 16:05 5,3 C 65 % 1014,3 hPa 0,0 l/m 1,9 km/h (1 Bft) N-NO 22 -0,7 C 5,7 C 3,4 km/h (1 Bft)
13.01.2014 16:10 4,8 C 65 % 1014,3 hPa 0,0 l/m 1,4 km/h (1 Bft) N-NO 22 -1,2 C 5,6 C 0,0 km/h (0 Bft)
13.01.2014 16:15 4,4 C 66 % 1014,3 hPa 0,0 l/m 0,8 km/h (0 Bft) N-NO 22 -1,4 C 5,4 C 0,0 km/h (0 Bft)
13.01.2014 16:20 4,4 C 67 % 1014,3 hPa 0,0 l/m 1,4 km/h (1 Bft) NO 45 -1,2 C 5,2 C 4,7 km/h (1 Bft)
13.01.2014 16:25 4,6 C 68 % 1013,8 hPa 0,0 l/m 2,3 km/h (1 Bft) NO 45 -0,8 C 5,1 C 0,0 km/h (0 Bft)
13.01.2014 16:30 4,4 C 68 % 1013,8 hPa 0,0 l/m 1,4 km/h (1 Bft) NO 45 -1,0 C 4,9 C 0,0 km/h (0 Bft)
13.01.2014 16:35 4,3 C 68 % 1013,8 hPa 0,0 l/m 0,8 km/h (0 Bft) NO 45 -1,1 C 4,6 C 3,2 km/h (1 Bft)
13.01.2014 16:40 3,7 C 69 % 1013,8 hPa 0,0 l/m 1,4 km/h (1 Bft) NO 45 -1,4 C 4,3 C 2,7 km/h (1 Bft)
13.01.2014 16:45 4,1 C 69 % 1013,7 hPa 0,0 l/m 1,9 km/h (1 Bft) NO 45 -1,1 C 4,2 C 3,1 km/h (1 Bft)
13.01.2014 16:48 3,6 C 68 % 1013,7 hPa 0,0 l/m 2,7 km/h (1 Bft) NO 45 -1,7 C 3,9 C 0,0 km/h (0 Bft)
13.01.2014 16:50 3,6 C 68 % 1013,7 hPa 0,0 l/m 2,7 km/h (1 Bft) NO 45 -1,7 C 3,9 C 0,0 km/h (0 Bft)
13.01.2014 16:55 3,3 C 69 % 1013,7 hPa 0,0 l/m 2,4 km/h (1 Bft) NO 45 -1,8 C 3,4 C 2,4 km/h (1 Bft)
13.01.2014 17:00 3,7 C 70 % 1013,7 hPa 0,0 l/m 2,3 km/h (1 Bft) NO 45 -1,3 C 3,2 C 3,5 km/h (1 Bft)
13.01.2014 17:05 3,5 C 69 % 1013,3 hPa 0,0 l/m 2,3 km/h (1 Bft) NO 45 -1,6 C 3,2 C 0,0 km/h (0 Bft)
13.01.2014 17:10 2,7 C 71 % 1013,3 hPa 0,0 l/m 1,0 km/h (0 Bft) NO 45 -2,0 C 3,0 C 0,0 km/h (0 Bft)
13.01.2014 17:15 2,5 C 71 % 1013,3 hPa 0,0 l/m 0,0 km/h (0 Bft) NO 45 -2,2 C 2,8 C 0,0 km/h (0 Bft)
13.01.2014 17:20 2,8 C 72 % 1013,3 hPa 0,0 l/m 0,0 km/h (0 Bft) NO 45 -1,7 C 2,5 C 0,0 km/h (0 Bft)
13.01.2014 17:25 2,8 C 72 % 1013,4 hPa 0,0 l/m 0,0 km/h (0 Bft) NO 45 -1,7 C 2,4 C 0,0 km/h (0 Bft)
13.01.2014 17:29 1,9 C 73 % 1013,4 hPa 0,0 l/m 0,0 km/h (0 Bft) NO 45 -2,4 C 2,1 C 0,0 km/h (0 Bft)
13.01.2014 17:30 1,9 C 73 % 1013,4 hPa 0,0 l/m 0,0 km/h (0 Bft) NO 45 -2,4 C 2,1 C 0,0 km/h (0 Bft)
13.01.2014 17:35 2,0 C 74 % 1013,4 hPa 0,0 l/m 0,0 km/h (0 Bft) NO 45 -2,1 C 1,8 C 0,0 km/h (0 Bft)
13.01.2014 17:40 1,9 C 75 % 1013,4 hPa 0,0 l/m 0,2 km/h (0 Bft) NO 45 -2,1 C 1,7 C 0,0 km/h (0 Bft)
13.01.2014 17:45 1,7 C 75 % 1013,3 hPa 0,0 l/m 0,2 km/h (0 Bft) NO 45 -2,2 C 1,6 C 0,0 km/h (0 Bft)
13.01.2014 17:50 2,0 C 76 % 1013,3 hPa 0,0 l/m 0,0 km/h (0 Bft) NO 45 -1,8 C 1,5 C 0,0 km/h (0 Bft)
13.01.2014 17:55 1,6 C 76 % 1013,3 hPa 0,0 l/m 0,0 km/h (0 Bft) NO 45 -2,2 C 1,4 C 0,0 km/h (0 Bft)
13.01.2014 18:00 1,8 C 77 % 1013,3 hPa 0,0 l/m 0,0 km/h (0 Bft) NO 45 -1,8 C 1,2 C 0,0 km/h (0 Bft)
13.01.2014 18:05 1,8 C 77 % 1013,3 hPa 0,0 l/m 0,2 km/h (0 Bft) NO 45 -1,8 C 1,1 C 2,7 km/h (1 Bft)
13.01.2014 18:10 1,8 C 77 % 1013,3 hPa 0,0 l/m 0,5 km/h (0 Bft) NO 45 -1,8 C 1,2 C 0,0 km/h (0 Bft)
13.01.2014 18:15 1,2 C 77 % 1013,3 hPa 0,0 l/m 0,5 km/h (0 Bft) NO 45 -2,4 C 1,0 C 0,0 km/h (0 Bft)
13.01.2014 18:20 1,0 C 77 % 1013,3 hPa 0,0 l/m 0,0 km/h (0 Bft) NO 45 -2,6 C 1,0 C 0,0 km/h (0 Bft)
13.01.2014 18:25 1,0 C 78 % 1013,4 hPa 0,0 l/m 0,0 km/h (0 Bft) NO 45 -2,4 C 1,0 C 0,0 km/h (0 Bft)
13.01.2014 18:30 1,8 C 79 % 1013,4 hPa 0,0 l/m 0,2 km/h (0 Bft) O-SO 112 -1,4 C 1,0 C 2,7 km/h (1 Bft)
13.01.2014 18:35 1,8 C 79 % 1013,4 hPa 0,0 l/m 0,3 km/h (0 Bft) O 90 -1,4 C 1,3 C 0,0 km/h (0 Bft)
13.01.2014 18:40 1,2 C 78 % 1013,4 hPa 0,0 l/m 0,3 km/h (0 Bft) O-NO 67 -2,2 C 1,2 C 0,0 km/h (0 Bft)
13.01.2014 18:45 1,1 C 79 % 1013,4 hPa 0,0 l/m 0,0 km/h (0 Bft) NO 45 -2,1 C 1,1 C 0,0 km/h (0 Bft)
13.01.2014 18:50 1,1 C 79 % 1013,4 hPa 0,0 l/m 0,2 km/h (0 Bft) SO 135 -2,1 C 1,2 C 1,9 km/h (1 Bft)
13.01.2014 18:55 1,2 C 79 % 1013,4 hPa 0,0 l/m 0,5 km/h (0 Bft) O-SO 112 -2,0 C 1,4 C 0,0 km/h (0 Bft)
13.01.2014 19:00 1,7 C 81 % 1013,4 hPa 0,0 l/m 1,6 km/h (1 Bft) SO 135 -1,2 C 1,6 C 7,7 km/h (2 Bft)
13.01.2014 19:05 2,3 C 81 % 1013,4 hPa 0,0 l/m 3,4 km/h (1 Bft) O 90 -0,6 C 1,6 C 5,8 km/h (2 Bft)
13.01.2014 19:10 2,5 C 80 % 1013,4 hPa 0,0 l/m 4,3 km/h (1 Bft) O 90 -0,6 C 1,8 C 7,2 km/h (2 Bft)
13.01.2014 19:15 2,1 C 80 % 1013,4 hPa 0,0 l/m 3,1 km/h (1 Bft) NO 45 -1,0 C 2,6 C 3,2 km/h (1 Bft)
13.01.2014 19:20 1,9 C 80 % 1013,4 hPa 0,0 l/m 1,0 km/h (0 Bft) O-SO 112 -1,2 C 2,6 C 0,0 km/h (0 Bft)
13.01.2014 19:25 1,7 C 79 % 1013,1 hPa 0,0 l/m 0,3 km/h (0 Bft) O-SO 112 -1,5 C 2,5 C 0,0 km/h (0 Bft)
13.01.2014 19:30 1,6 C 80 % 1013,1 hPa 0,0 l/m 0,0 km/h (0 Bft) NO 45 -1,5 C 2,1 C 0,0 km/h (0 Bft)
13.01.2014 19:35 1,7 C 81 % 1013,1 hPa 0,0 l/m 1,4 km/h (1 Bft) O 90 -1,2 C 2,0 C 6,9 km/h (2 Bft)
13.01.2014 19:40 2,5 C 81 % 1013,1 hPa 0,0 l/m 3,5 km/h (1 Bft) SO 135 -0,4 C 2,1 C 0,0 km/h (0 Bft)
13.01.2014 19:45 2,1 C 80 % 1012,9 hPa 0,0 l/m 2,7 km/h (1 Bft) O 90 -1,0 C 2,7 C 0,0 km/h (0 Bft)
13.01.2014 19:50 1,5 C 80 % 1012,9 hPa 0,0 l/m 0,5 km/h (0 Bft) SO 135 -1,6 C 2,4 C 0,0 km/h (0 Bft)
13.01.2014 19:55 1,3 C 81 % 1012,9 hPa 0,0 l/m 0,3 km/h (0 Bft) O 90 -1,6 C 2,1 C 0,0 km/h (0 Bft)
13.01.2014 20:00 0,8 C 81 % 1012,9 hPa 0,0 l/m 0,0 km/h (0 Bft) O 90 -2,1 C 1,6 C 0,0 km/h (0 Bft)
13.01.2014 20:05 0,6 C 81 % 1013,0 hPa 0,0 l/m 0,0 km/h (0 Bft) O 90 -2,3 C 1,2 C 0,0 km/h (0 Bft)
13.01.2014 20:10 0,3 C 81 % 1013,0 hPa 0,0 l/m 0,0 km/h (0 Bft) O 90 -2,6 C 0,8 C 0,0 km/h (0 Bft)
13.01.2014 20:15 0,3 C 81 % 1013,0 hPa 0,0 l/m 0,0 km/h (0 Bft) O 90 -2,6 C 0,5 C 0,0 km/h (0 Bft)
13.01.2014 20:20 0,8 C 82 % 1013,0 hPa 0,0 l/m 0,0 km/h (0 Bft) O 90 -1,9 C 0,4 C 0,0 km/h (0 Bft)
13.01.2014 20:25 0,8 C 83 % 1012,9 hPa 0,0 l/m 0,0 km/h (0 Bft) S-SO 157 -1,8 C 0,6 C 0,0 km/h (0 Bft)
13.01.2014 20:30 0,7 C 83 % 1012,9 hPa 0,0 l/m 0,2 km/h (0 Bft) S-SO 157 -1,8 C 0,8 C 0,0 km/h (0 Bft)
13.01.2014 20:35 0,9 C 84 % 1012,9 hPa 0,0 l/m 0,5 km/h (0 Bft) O 90 -1,5 C 1,0 C 0,0 km/h (0 Bft)
13.01.2014 20:40 1,2 C 84 % 1012,9 hPa 0,0 l/m 0,5 km/h (0 Bft) O 90 -1,2 C 1,3 C 0,0 km/h (0 Bft)
13.01.2014 20:45 1,2 C 84 % 1012,8 hPa 0,0 l/m 0,3 km/h (0 Bft) O 90 -1,2 C 1,4 C 0,0 km/h (0 Bft)
13.01.2014 20:50 1,8 C 84 % 1012,8 hPa 0,0 l/m 1,3 km/h (1 Bft) SW 225 -0,6 C 1,8 C 3,4 km/h (1 Bft)
13.01.2014 20:55 1,5 C 84 % 1012,8 hPa 0,0 l/m 1,4 km/h (1 Bft) O 90 -0,9 C 1,8 C 2,7 km/h (1 Bft)
13.01.2014 21:00 1,6 C 84 % 1012,8 hPa 0,0 l/m 0,6 km/h (0 Bft) S-SO 157 -0,8 C 1,8 C 2,3 km/h (1 Bft)
13.01.2014 21:05 1,9 C 84 % 1012,7 hPa 0,0 l/m 0,3 km/h (0 Bft) SW 225 -0,5 C 1,9 C 0,0 km/h (0 Bft)
13.01.2014 21:10 1,7 C 84 % 1012,7 hPa 0,0 l/m 0,0 km/h (0 Bft) SO 135 -0,7 C 1,9 C 0,0 km/h (0 Bft)
13.01.2014 21:15 1,7 C 84 % 1012,7 hPa 0,0 l/m 0,0 km/h (0 Bft) S-SO 157 -0,7 C 1,9 C 0,0 km/h (0 Bft)
13.01.2014 21:20 1,6 C 84 % 1012,7 hPa 0,0 l/m 0,0 km/h (0 Bft) SO 135 -0,8 C 1,9 C 0,0 km/h (0 Bft)
13.01.2014 21:25 2,4 C 84 % 1012,6 hPa 0,0 l/m 1,6 km/h (1 Bft) O-SO 112 -0,0 C 2,1 C 6,8 km/h (2 Bft)
13.01.2014 21:30 2,9 C 83 % 1012,6 hPa 0,0 l/m 5,5 km/h (1 Bft) O-SO 112 0,3 C 1,5 C 10,1 km/h (2 Bft)
13.01.2014 21:35 3,3 C 80 % 1012,6 hPa 0,0 l/m 6,9 km/h (2 Bft) O 90 0,2 C 1,2 C 9,8 km/h (2 Bft)
13.01.2014 21:40 3,5 C 79 % 1012,6 hPa 0,0 l/m 6,9 km/h (2 Bft) O-SO 112 0,2 C 1,5 C 7,4 km/h (2 Bft)
13.01.2014 21:45 3,5 C 78 % 1011,8 hPa 0,0 l/m 6,0 km/h (2 Bft) O 90 0,0 C 2,6 C 6,6 km/h (2 Bft)
13.01.2014 21:50 3,5 C 79 % 1011,8 hPa 0,0 l/m 5,0 km/h (1 Bft) O-SO 112 0,2 C 2,9 C 6,4 km/h (2 Bft)
13.01.2014 21:55 3,7 C 79 % 1011,8 hPa 0,0 l/m 4,8 km/h (1 Bft) O-SO 112 0,4 C 3,1 C 6,9 km/h (2 Bft)
13.01.2014 22:00 3,6 C 79 % 1011,8 hPa 0,0 l/m 5,1 km/h (1 Bft) O-SO 112 0,3 C 3,1 C 5,8 km/h (2 Bft)
13.01.2014 22:05 3,7 C 79 % 1011,3 hPa 0,0 l/m 4,8 km/h (1 Bft) O-SO 112 0,4 C 3,3 C 3,9 km/h (1 Bft)
13.01.2014 22:10 3,8 C 79 % 1011,3 hPa 0,0 l/m 5,1 km/h (1 Bft) O 90 0,5 C 3,1 C 6,4 km/h (2 Bft)
13.01.2014 22:15 3,9 C 80 % 1011,3 hPa 0,0 l/m 5,0 km/h (1 Bft) O-SO 112 0,8 C 3,2 C 6,1 km/h (2 Bft)
13.01.2014 22:20 3,8 C 80 % 1011,3 hPa 0,0 l/m 3,7 km/h (1 Bft) SO 135 0,7 C 3,8 C 0,0 km/h (0 Bft)
13.01.2014 22:25 3,6 C 79 % 1011,1 hPa 0,0 l/m 2,3 km/h (1 Bft) SO 135 0,3 C 4,2 C 4,7 km/h (1 Bft)
13.01.2014 22:30 3,8 C 80 % 1011,1 hPa 0,0 l/m 2,7 km/h (1 Bft) O-SO 112 0,7 C 4,2 C 7,6 km/h (2 Bft)
13.01.2014 22:35 3,7 C 80 % 1011,1 hPa 0,0 l/m 4,0 km/h (1 Bft) O-SO 112 0,6 C 3,6 C 4,5 km/h (1 Bft)
13.01.2014 22:40 3,5 C 80 % 1011,1 hPa 0,0 l/m 2,9 km/h (1 Bft) O-SO 112 0,4 C 4,2 C 1,8 km/h (1 Bft)
13.01.2014 22:45 3,6 C 80 % 1011,1 hPa 0,0 l/m 2,1 km/h (1 Bft) O 90 0,5 C 4,1 C 3,1 km/h (1 Bft)
13.01.2014 22:50 2,6 C 79 % 1011,1 hPa 0,0 l/m 1,3 km/h (1 Bft) S 180 -0,7 C 3,7 C 0,0 km/h (0 Bft)
13.01.2014 22:55 2,3 C 79 % 1011,1 hPa 0,0 l/m 0,3 km/h (0 Bft) S 180 -1,0 C 3,3 C 0,0 km/h (0 Bft)
13.01.2014 23:00 2,3 C 80 % 1011,1 hPa 0,0 l/m 0,6 km/h (0 Bft) O-SO 112 -0,8 C 2,7 C 2,1 km/h (1 Bft)
13.01.2014 23:05 2,7 C 82 % 1011,2 hPa 0,0 l/m 1,8 km/h (1 Bft) O-NO 67 -0,1 C 2,6 C 4,0 km/h (1 Bft)
13.01.2014 23:10 2,5 C 82 % 1011,2 hPa 0,0 l/m 1,4 km/h (1 Bft) O 90 -0,3 C 2,6 C 0,0 km/h (0 Bft)
13.01.2014 23:15 2,1 C 82 % 1011,2 hPa 0,0 l/m 0,3 km/h (0 Bft) O 90 -0,6 C 2,5 C 0,0 km/h (0 Bft)
13.01.2014 23:20 2,0 C 82 % 1011,2 hPa 0,0 l/m 0,0 km/h (0 Bft) O 90 -0,7 C 2,4 C 0,0 km/h (0 Bft)
13.01.2014 23:25 1,8 C 82 % 1011,0 hPa 0,0 l/m 0,0 km/h (0 Bft) NO 45 -0,9 C 2,2 C 0,0 km/h (0 Bft)
13.01.2014 23:30 1,7 C 82 % 1011,0 hPa 0,0 l/m 0,0 km/h (0 Bft) NO 45 -1,0 C 2,0 C 0,0 km/h (0 Bft)
13.01.2014 23:35 1,6 C 83 % 1011,0 hPa 0,0 l/m 0,0 km/h (0 Bft) NO 45 -1,0 C 1,9 C 0,0 km/h (0 Bft)
13.01.2014 23:40 1,6 C 83 % 1011,0 hPa 0,0 l/m 0,2 km/h (0 Bft) O 90 -1,0 C 1,6 C 0,0 km/h (0 Bft)
13.01.2014 23:45 1,7 C 84 % 1010,7 hPa 0,0 l/m 0,3 km/h (0 Bft) SO 135 -0,7 C 1,5 C 2,9 km/h (1 Bft)
13.01.2014 23:50 1,8 C 85 % 1010,7 hPa 0,0 l/m 2,3 km/h (1 Bft) O-SO 112 -0,4 C 1,5 C 4,0 km/h (1 Bft)
13.01.2014 23:55 1,9 C 85 % 1010,7 hPa 0,0 l/m 3,1 km/h (1 Bft) O 90 -0,3 C 1,1 C 1,9 km/h (1 Bft)
_ Min-Zeit 02:10 07:20 23:55 - 23:35 - - 07:40 01:00 23:40
Minimum _ -5,5 C 58 % 1010,7 hPa - 0,0 km/h (0 Bft) - - -7,3 C -6,1 C 0,0 km/h (0 Bft)
_ Max-Zeit 14:10 00:40 03:00 23:55 07:25 - - 22:15 14:10 01:00
Maximum _ 6,9 C 92 % 1018,6 hPa 0,0 l/m 7,1 km/h
O (2 Bft)
- - 0,8 C 9,0 C 13,7 km/h
O-SO (3 Bft)
Durchschnitt _ 0,6 C 77 % 1015,4 hPa #0,0 l/m 1,2 km/h (1 Bft) O-SO - -3,0 C 0,6 C 1,6 km/h (1 Bft)